createdAt,value
2022-10-05T00:01:21.664Z,86.54
2022-10-05T00:03:49.759Z,88.84
2022-10-05T00:06:17.721Z,87.31
2022-10-05T00:08:45.487Z,86.76
2022-10-05T00:11:14.676Z,84.78
2022-10-05T00:13:43.846Z,84.40
2022-10-05T00:16:16.800Z,83.23
2022-10-05T00:18:48.398Z,82.84
2022-10-05T00:21:21.998Z,83.35
2022-10-05T00:23:50.387Z,82.65
2022-10-05T00:26:22.618Z,82.95
2022-10-05T00:28:54.618Z,82.51
2022-10-05T00:31:24.804Z,82.41
2022-10-05T00:33:54.853Z,81.23
2022-10-05T00:36:22.563Z,84.37
2022-10-05T00:38:51.089Z,84.77
2022-10-05T00:41:24.726Z,87.82
2022-10-05T00:44:21.319Z,87.49
2022-10-05T00:46:57.802Z,87.08
2022-10-05T00:49:41.753Z,86.08
2022-10-05T00:52:22.061Z,85.43
2022-10-05T00:54:57.418Z,84.86
2022-10-05T00:57:35.547Z,88.33
2022-10-05T01:00:10.007Z,91.55
2022-10-05T01:02:51.042Z,92.47
2022-10-05T01:05:30.873Z,89.24
2022-10-05T01:08:08.459Z,88.25
2022-10-05T01:10:45.855Z,87.79
2022-10-05T01:13:25.494Z,86.48
2022-10-05T01:16:04.158Z,86.57
2022-10-05T01:18:39.719Z,85.28
2022-10-05T01:21:14.516Z,85.64
2022-10-05T01:24:23.930Z,84.44
2022-10-05T01:27:17.385Z,86.81
2022-10-05T01:29:55.561Z,86.07
2022-10-05T01:32:29.848Z,84.95
2022-10-05T01:35:07.014Z,86.62
2022-10-05T01:37:43.046Z,86.58
2022-10-05T01:40:19.376Z,87.06
2022-10-05T01:43:00.146Z,89.64
2022-10-05T01:45:39.473Z,92.54
2022-10-05T01:48:14.259Z,92.63
2022-10-05T01:50:51.237Z,90.04
2022-10-05T01:53:35.924Z,89.34
2022-10-05T01:56:15.445Z,88.77
2022-10-05T01:58:53.094Z,88.16
2022-10-05T02:01:31.860Z,86.80
2022-10-05T02:04:06.937Z,87.92
2022-10-05T02:06:41.537Z,87.05
2022-10-05T02:09:16.220Z,86.98
2022-10-05T02:11:48.331Z,88.20
2022-10-05T02:14:20.282Z,88.43
2022-10-05T02:16:52.375Z,90.25
2022-10-05T02:19:24.620Z,90.09
2022-10-05T02:21:57.294Z,88.62
2022-10-05T02:24:31.121Z,88.80
2022-10-05T02:26:59.887Z,87.53
2022-10-05T02:29:32.905Z,88.55
2022-10-05T02:32:06.523Z,88.37
2022-10-05T02:34:39.190Z,88.17
2022-10-05T02:37:30.903Z,87.30
2022-10-05T02:40:17.258Z,87.07
2022-10-05T02:42:56.751Z,86.67
2022-10-05T02:45:38.513Z,86.82
2022-10-05T02:48:16.126Z,88.00
2022-10-05T02:50:52.579Z,87.57
2022-10-05T02:53:26.716Z,88.00
2022-10-05T02:56:06.257Z,88.23
2022-10-05T02:58:43.041Z,90.14
2022-10-05T03:01:18.038Z,89.08
2022-10-05T03:04:00.154Z,90.90
2022-10-05T03:06:39.059Z,91.07
2022-10-05T03:09:08.743Z,96.15
2022-10-05T03:11:45.478Z,95.42
2022-10-05T03:14:19.920Z,92.56
2022-10-05T03:16:58.129Z,90.17
2022-10-05T03:20:04.043Z,90.44
2022-10-05T03:22:45.202Z,90.65
2022-10-05T03:25:31.650Z,90.45
2022-10-05T03:28:08.135Z,90.89
2022-10-05T03:30:45.192Z,89.67
2022-10-05T03:33:22.737Z,88.38
2022-10-05T03:35:59.829Z,87.38
2022-10-05T03:38:40.389Z,87.14
2022-10-05T03:41:16.363Z,88.48
2022-10-05T03:43:59.105Z,90.22
2022-10-05T03:46:40.014Z,90.21
2022-10-05T03:49:15.746Z,91.13
2022-10-05T03:51:51.233Z,91.10
2022-10-05T03:54:25.848Z,89.91
2022-10-05T03:56:56.795Z,91.80
2022-10-05T03:59:32.596Z,92.21
2022-10-05T04:02:06.477Z,94.09
2022-10-05T04:04:38.422Z,95.03
2022-10-05T04:07:13.013Z,97.73
2022-10-05T04:09:43.961Z,94.52
2022-10-05T04:12:24.423Z,92.01
2022-10-05T04:14:58.456Z,90.54
2022-10-05T04:17:34.227Z,94.61
2022-10-05T04:20:07.093Z,96.18
2022-10-05T04:22:40.317Z,96.35
2022-10-05T04:25:17.794Z,97.79
2022-10-05T04:27:52.027Z,94.96
2022-10-05T04:30:22.142Z,94.57
2022-10-05T04:32:54.869Z,94.78
2022-10-05T04:35:50.041Z,96.28
2022-10-05T04:38:29.677Z,97.07
2022-10-05T04:41:15.892Z,96.71
2022-10-05T04:43:54.796Z,95.60
2022-10-05T04:46:37.609Z,93.03
2022-10-05T04:49:18.523Z,91.25
2022-10-05T04:52:01.029Z,90.63
2022-10-05T04:54:44.525Z,91.65
2022-10-05T04:57:18.015Z,91.65
2022-10-05T05:00:04.651Z,91.68
2022-10-05T05:02:48.867Z,90.38
2022-10-05T05:06:05.003Z,93.17
2022-10-05T05:08:47.160Z,92.09
2022-10-05T05:11:28.042Z,92.64
2022-10-05T05:14:17.351Z,89.67
2022-10-05T05:16:50.536Z,89.82
2022-10-05T05:19:37.422Z,87.94
2022-10-05T05:22:09.462Z,88.44
2022-10-05T05:24:55.685Z,87.99
2022-10-05T05:27:43.189Z,87.77
2022-10-05T05:30:22.262Z,87.47
2022-10-05T05:33:16.998Z,87.17
2022-10-05T05:36:22.872Z,86.80
2022-10-05T05:39:02.583Z,85.95
2022-10-05T05:41:38.027Z,85.39
2022-10-05T05:44:18.161Z,88.12
2022-10-05T05:47:10.012Z,86.71
2022-10-05T05:49:55.234Z,86.06
2022-10-05T05:52:32.068Z,85.67
2022-10-05T05:55:06.028Z,86.74
2022-10-05T05:57:40.039Z,90.51
2022-10-05T06:00:21.592Z,89.16
2022-10-05T06:03:02.899Z,87.26
2022-10-05T06:05:35.258Z,86.56
2022-10-05T06:08:11.871Z,88.35
2022-10-05T06:10:46.414Z,89.39
2022-10-05T06:13:20.524Z,89.56
2022-10-05T06:15:55.162Z,90.76
2022-10-05T06:18:24.080Z,91.65
2022-10-05T06:21:00.829Z,92.71
2022-10-05T06:23:40.868Z,94.69
2022-10-05T06:26:31.934Z,93.45
2022-10-05T06:29:04.048Z,91.22
2022-10-05T06:31:58.890Z,89.68
2022-10-05T06:34:46.344Z,88.11
2022-10-05T06:37:25.990Z,87.02
2022-10-05T06:40:09.224Z,85.98
2022-10-05T06:42:48.354Z,86.39
2022-10-05T06:45:54.841Z,86.11
2022-10-05T06:49:06.527Z,85.42
2022-10-05T06:52:00.080Z,84.93
2022-10-05T06:54:46.803Z,85.33
2022-10-05T06:57:36.652Z,85.01
2022-10-05T07:00:08.110Z,84.64
2022-10-05T07:02:43.999Z,84.24
2022-10-05T07:05:44.021Z,83.49
2022-10-05T07:08:19.917Z,82.64
2022-10-05T07:11:00.334Z,82.29
2022-10-05T07:13:56.861Z,82.52
2022-10-05T07:16:35.813Z,82.54
2022-10-05T07:19:14.735Z,81.85
2022-10-05T07:21:52.478Z,80.64
2022-10-05T07:24:31.536Z,81.05
2022-10-05T07:27:11.207Z,81.79
2022-10-05T07:29:48.466Z,81.10
2022-10-05T07:32:29.047Z,77.92
2022-10-05T07:35:09.935Z,76.38
2022-10-05T07:37:57.266Z,75.99
2022-10-05T07:40:34.369Z,72.18
2022-10-05T07:43:14.852Z,73.79
2022-10-05T07:45:49.101Z,73.60
2022-10-05T07:48:21.829Z,72.14
2022-10-05T07:50:59.780Z,73.88
2022-10-05T07:53:36.889Z,72.63
2022-10-05T07:56:10.671Z,72.41
2022-10-05T07:58:44.172Z,71.27
2022-10-05T08:01:19.250Z,71.75
2022-10-05T08:03:57.967Z,70.19
2022-10-05T08:06:45.272Z,68.42
2022-10-05T08:09:27.165Z,69.80
2022-10-05T08:12:03.557Z,68.13
2022-10-05T08:14:39.761Z,68.75
2022-10-05T08:17:21.681Z,69.41
2022-10-05T08:20:00.226Z,68.55
2022-10-05T08:22:35.684Z,66.19
2022-10-05T08:25:10.284Z,67.57
2022-10-05T08:27:49.143Z,65.36
2022-10-05T08:30:17.497Z,66.31
2022-10-05T08:32:52.298Z,66.52
2022-10-05T08:35:28.048Z,65.50
2022-10-05T08:37:56.982Z,65.15
2022-10-05T08:40:51.582Z,65.03
2022-10-05T08:43:35.965Z,64.39
2022-10-05T08:46:26.844Z,64.85
2022-10-05T08:49:34.905Z,62.12
2022-10-05T08:52:29.038Z,60.58
2022-10-05T08:55:30.498Z,59.85
2022-10-05T08:58:38.456Z,61.23
2022-10-05T09:01:15.636Z,60.29
2022-10-05T09:04:15.811Z,61.65
2022-10-05T09:06:58.424Z,60.30
2022-10-05T09:10:01.547Z,59.04
2022-10-05T09:12:52.948Z,60.19
2022-10-05T09:15:54.170Z,59.98
2022-10-05T09:18:57.070Z,61.03
2022-10-05T09:21:41.809Z,61.12
2022-10-05T09:24:27.044Z,61.53
2022-10-05T09:27:08.760Z,58.48
2022-10-05T09:30:00.913Z,57.12
2022-10-05T09:33:10.362Z,60.67
2022-10-05T09:36:02.867Z,60.76
2022-10-05T09:38:44.656Z,57.04
2022-10-05T09:41:47.838Z,58.19
2022-10-05T09:44:53.914Z,57.15
2022-10-05T09:47:52.139Z,58.65
2022-10-05T09:50:44.894Z,57.95
2022-10-05T09:53:29.914Z,56.44
2022-10-05T09:56:21.198Z,58.06
2022-10-05T09:59:11.775Z,56.60
2022-10-05T10:01:58.703Z,57.00
2022-10-05T10:04:49.781Z,56.25
2022-10-05T10:07:46.489Z,55.97
2022-10-05T10:10:42.145Z,56.01
2022-10-05T10:13:25.615Z,59.27
2022-10-05T10:16:16.341Z,57.65
2022-10-05T10:19:06.257Z,56.21
2022-10-05T10:22:06.382Z,58.28
2022-10-05T10:24:57.617Z,57.94
2022-10-05T10:27:41.961Z,56.38
2022-10-05T10:30:36.471Z,55.99
2022-10-05T10:33:44.890Z,56.73
2022-10-05T10:36:18.836Z,56.23
2022-10-05T10:38:59.388Z,56.18
2022-10-05T10:42:01.975Z,54.68
2022-10-05T10:45:06.407Z,53.57
2022-10-05T10:47:52.840Z,54.43
2022-10-05T10:50:55.871Z,53.52
2022-10-05T10:53:56.101Z,54.35
2022-10-05T10:56:51.822Z,54.87
2022-10-05T10:59:52.436Z,53.60
2022-10-05T11:02:56.799Z,53.26
2022-10-05T11:05:32.634Z,52.95
2022-10-05T11:08:20.503Z,53.47
2022-10-05T11:11:10.782Z,51.99
2022-10-05T11:14:02.570Z,50.62
2022-10-05T11:17:05.077Z,50.24
2022-10-05T11:20:03.580Z,51.63
2022-10-05T11:22:57.203Z,52.08
2022-10-05T11:25:51.654Z,49.72
2022-10-05T11:29:07.052Z,50.70
2022-10-05T11:31:59.873Z,50.08
2022-10-05T11:35:19.754Z,50.33
2022-10-05T11:38:04.721Z,49.81
2022-10-05T11:41:06.398Z,48.91
2022-10-05T11:44:07.882Z,49.43
2022-10-05T11:46:49.212Z,51.45
2022-10-05T11:49:28.918Z,50.20
2022-10-05T11:52:07.143Z,49.06
2022-10-05T11:55:10.986Z,52.87
2022-10-05T11:57:50.421Z,50.83
2022-10-05T12:00:20.843Z,48.12
2022-10-05T12:03:00.750Z,49.43
2022-10-05T12:05:39.091Z,47.89
2022-10-05T12:08:23.107Z,48.14
2022-10-05T12:11:03.463Z,47.97
2022-10-05T12:13:41.076Z,47.12
2022-10-05T12:16:16.772Z,46.92
2022-10-05T12:18:55.987Z,47.03
2022-10-05T12:21:32.728Z,47.49
2022-10-05T12:24:05.860Z,46.88
2022-10-05T12:26:37.759Z,47.16
2022-10-05T12:29:14.192Z,46.24
2022-10-05T12:31:51.460Z,46.20
2022-10-05T12:34:35.718Z,47.33
2022-10-05T12:37:11.187Z,46.35
2022-10-05T12:39:49.436Z,46.91
2022-10-05T12:42:29.655Z,47.14
2022-10-05T12:45:12.501Z,45.79
2022-10-05T12:47:55.227Z,46.17
2022-10-05T12:50:29.463Z,46.94
2022-10-05T12:53:18.770Z,46.98
2022-10-05T12:55:54.463Z,46.96
2022-10-05T12:58:34.192Z,47.22
2022-10-05T13:01:10.175Z,46.82
2022-10-05T13:03:41.049Z,47.66
2022-10-05T13:06:24.129Z,46.30
2022-10-05T13:08:57.392Z,46.50
2022-10-05T13:11:32.433Z,46.19
2022-10-05T13:14:12.438Z,45.03
2022-10-05T13:16:49.204Z,45.53
2022-10-05T13:19:35.411Z,44.99
2022-10-05T13:22:30.702Z,45.53
2022-10-05T13:25:17.296Z,46.16
2022-10-05T13:27:49.547Z,45.00
2022-10-05T13:30:19.893Z,45.28
2022-10-05T13:32:53.434Z,45.81
2022-10-05T13:35:30.661Z,44.48
2022-10-05T13:38:12.140Z,45.51
2022-10-05T13:40:50.560Z,46.15
2022-10-05T13:43:26.957Z,48.15
2022-10-05T13:45:57.385Z,48.62
2022-10-05T13:48:46.388Z,51.49
2022-10-05T13:51:21.551Z,52.15
2022-10-05T13:54:01.959Z,51.26
2022-10-05T13:56:32.002Z,51.80
2022-10-05T13:59:07.823Z,51.21
2022-10-05T14:01:42.758Z,51.18
2022-10-05T14:04:18.061Z,51.55
2022-10-05T14:06:49.376Z,52.37
2022-10-05T14:09:31.256Z,53.01
2022-10-05T14:12:14.895Z,52.70
2022-10-05T14:14:48.808Z,52.53
2022-10-05T14:17:32.813Z,53.95
2022-10-05T14:20:03.357Z,55.25
2022-10-05T14:22:31.170Z,54.61
2022-10-05T14:25:17.085Z,55.95
2022-10-05T14:27:51.871Z,54.39
2022-10-05T14:30:23.536Z,54.91
2022-10-05T14:32:57.068Z,54.11
2022-10-05T14:35:26.538Z,54.57
2022-10-05T14:37:59.649Z,54.61
2022-10-05T14:40:34.053Z,54.30
2022-10-05T14:43:18.439Z,54.26
2022-10-05T14:46:02.611Z,53.65
2022-10-05T14:48:41.806Z,55.43
2022-10-05T14:51:12.220Z,56.27
2022-10-05T14:53:43.261Z,55.20
2022-10-05T14:56:39.245Z,57.29
2022-10-05T14:59:30.390Z,56.41
2022-10-05T15:02:23.147Z,55.09
2022-10-05T15:04:57.513Z,56.59
2022-10-05T15:07:28.363Z,57.80
2022-10-05T15:10:08.394Z,58.29
2022-10-05T15:12:48.428Z,57.56
2022-10-05T15:15:28.223Z,57.85
2022-10-05T15:18:01.230Z,58.05
2022-10-05T15:20:36.932Z,57.68
2022-10-05T15:23:24.479Z,58.47
2022-10-05T15:26:02.749Z,58.91
2022-10-05T15:28:39.071Z,59.38
2022-10-05T15:31:17.449Z,60.41
2022-10-05T15:33:54.635Z,59.40
2022-10-05T15:36:27.751Z,58.49
2022-10-05T15:39:04.959Z,59.47
2022-10-05T15:41:52.819Z,61.01
2022-10-05T15:44:36.551Z,61.70
2022-10-05T15:47:08.390Z,61.23
2022-10-05T15:49:42.951Z,59.96
2022-10-05T15:52:18.816Z,59.75
2022-10-05T15:55:21.114Z,60.96
2022-10-05T15:57:58.706Z,62.04
2022-10-05T16:00:32.173Z,62.40
2022-10-05T16:03:15.975Z,61.36
2022-10-05T16:06:06.421Z,62.51
2022-10-05T16:08:55.058Z,61.84
2022-10-05T16:11:33.697Z,62.31
2022-10-05T16:14:13.924Z,63.19
2022-10-05T16:16:53.201Z,63.29
2022-10-05T16:19:29.495Z,64.74
2022-10-05T16:22:07.545Z,64.58
2022-10-05T16:24:58.291Z,67.80
2022-10-05T16:27:35.243Z,66.28
2022-10-05T16:30:10.570Z,66.64
2022-10-05T16:32:46.742Z,66.21
2022-10-05T16:35:25.426Z,66.80
2022-10-05T16:38:01.689Z,66.77
2022-10-05T16:40:38.801Z,66.99
2022-10-05T16:43:21.612Z,65.63
2022-10-05T16:46:03.751Z,65.47
2022-10-05T16:48:41.278Z,66.00
2022-10-05T16:51:21.393Z,65.81
2022-10-05T16:53:59.941Z,65.31
2022-10-05T16:56:34.187Z,65.38
2022-10-05T16:59:18.465Z,64.64
2022-10-05T17:02:00.676Z,64.24
2022-10-05T17:04:42.197Z,64.15
2022-10-05T17:07:26.302Z,64.17
2022-10-05T17:10:12.119Z,64.06
2022-10-05T17:12:53.133Z,65.07
2022-10-05T17:15:33.162Z,65.66
2022-10-05T17:18:27.304Z,65.71
2022-10-05T17:21:07.765Z,65.54
2022-10-05T17:23:55.117Z,65.12
2022-10-05T17:26:55.518Z,65.23
2022-10-05T17:29:30.108Z,64.37
2022-10-05T17:32:12.789Z,65.13
2022-10-05T17:35:18.188Z,64.74
2022-10-05T17:41:06.349Z,65.35
2022-10-05T17:43:34.942Z,65.70
2022-10-05T17:46:04.095Z,66.50
2022-10-05T17:48:44.115Z,66.41
2022-10-05T17:51:56.423Z,66.01
2022-10-05T17:54:43.335Z,67.28
2022-10-05T17:57:21.026Z,67.62
2022-10-05T17:59:59.265Z,69.32
2022-10-05T18:02:42.717Z,68.34
2022-10-05T18:05:23.168Z,68.94
2022-10-05T18:08:26.837Z,69.56
2022-10-05T18:11:17.004Z,68.79
2022-10-05T18:13:49.943Z,68.25
2022-10-05T18:16:50.816Z,67.50
2022-10-05T18:19:23.870Z,67.98
2022-10-05T18:22:04.411Z,67.34
2022-10-05T18:24:53.137Z,67.73
2022-10-05T18:27:43.212Z,67.45
2022-10-05T18:30:22.496Z,68.00
2022-10-05T18:33:29.872Z,69.48
2022-10-05T18:36:06.935Z,67.13
2022-10-05T18:39:02.359Z,67.05
2022-10-05T18:41:48.137Z,68.70
2022-10-05T18:44:50.189Z,71.23
2022-10-05T18:47:34.606Z,69.71
2022-10-05T18:50:20.919Z,69.62
2022-10-05T18:53:06.756Z,69.48
2022-10-05T18:55:41.475Z,69.35
2022-10-05T18:58:18.012Z,69.45
2022-10-05T19:01:15.035Z,70.68
2022-10-05T19:03:56.625Z,71.24
2022-10-05T19:06:30.956Z,72.70
2022-10-05T19:09:09.940Z,72.51
2022-10-05T19:11:44.423Z,72.01
2022-10-05T19:14:18.620Z,73.22
2022-10-05T19:17:09.333Z,71.72
2022-10-05T19:19:51.982Z,73.21
2022-10-05T19:22:32.945Z,72.66
2022-10-05T19:25:20.487Z,72.96
2022-10-05T19:28:00.428Z,71.93
2022-10-05T19:30:42.435Z,73.36
2022-10-05T19:33:26.988Z,73.07
2022-10-05T19:36:09.215Z,72.94
2022-10-05T19:38:45.845Z,74.83
2022-10-05T19:41:17.149Z,76.78
2022-10-05T19:44:09.088Z,76.71
2022-10-05T19:46:50.861Z,73.37
2022-10-05T19:49:43.485Z,73.00
2022-10-05T19:52:21.009Z,73.71
2022-10-05T19:55:01.769Z,73.66
2022-10-05T19:57:29.687Z,72.57
2022-10-05T19:59:59.489Z,73.94
2022-10-05T20:02:28.887Z,75.69
2022-10-05T20:05:07.302Z,74.10
2022-10-05T20:07:36.970Z,78.11
2022-10-05T20:10:28.191Z,78.55
2022-10-05T20:12:58.064Z,79.90
2022-10-05T20:15:45.434Z,77.72
2022-10-05T20:19:05.774Z,79.63
2022-10-05T20:21:48.770Z,78.32
2022-10-05T20:24:20.287Z,76.78
2022-10-05T20:27:02.151Z,77.80
2022-10-05T20:29:31.300Z,77.03
2022-10-05T20:31:59.803Z,79.89
2022-10-05T20:34:27.701Z,80.17
2022-10-05T20:36:55.583Z,78.30
2022-10-05T20:39:24.756Z,76.62
2022-10-05T20:41:52.480Z,75.40
2022-10-05T20:44:20.264Z,75.19
2022-10-05T20:46:48.102Z,74.98
2022-10-05T20:49:17.935Z,76.23
2022-10-05T20:51:45.929Z,77.29
2022-10-05T20:54:18.057Z,76.83
2022-10-05T20:56:47.200Z,75.67
2022-10-05T20:59:15.456Z,75.78
2022-10-05T21:01:45.313Z,75.44
2022-10-05T21:04:13.053Z,76.10
2022-10-05T21:06:41.084Z,76.59
2022-10-05T21:09:11.230Z,77.64
2022-10-05T21:11:40.046Z,78.38
2022-10-05T21:14:09.406Z,79.24
2022-10-05T21:16:38.047Z,79.85
2022-10-05T21:23:24.497Z,81.07
2022-10-05T21:25:53.045Z,79.19
2022-10-05T21:28:22.070Z,79.46
2022-10-05T21:30:51.320Z,80.01
2022-10-05T21:33:19.151Z,80.64
2022-10-05T21:35:46.920Z,81.93
2022-10-05T21:38:16.811Z,82.83
2022-10-05T21:40:45.498Z,80.77
2022-10-05T21:43:14.244Z,80.81
2022-10-05T21:45:43.412Z,80.67
2022-10-05T21:48:14.000Z,80.74
2022-10-05T21:50:42.263Z,80.18
2022-10-05T21:53:14.107Z,79.94
2022-10-05T21:55:45.172Z,79.83
2022-10-05T21:58:14.905Z,82.19
2022-10-05T22:00:42.971Z,82.35
2022-10-05T22:03:12.127Z,81.66
2022-10-05T22:05:40.102Z,81.62
2022-10-05T22:08:08.100Z,81.26
2022-10-05T22:10:35.976Z,80.91
2022-10-05T22:13:05.275Z,81.80
2022-10-05T22:15:33.212Z,81.63
2022-10-05T22:18:01.092Z,80.94
2022-10-05T22:20:31.864Z,79.85
2022-10-05T22:22:59.731Z,81.91
2022-10-05T22:25:27.559Z,82.93
2022-10-05T22:27:55.440Z,85.02
2022-10-05T22:30:23.273Z,85.78
2022-10-05T22:32:51.129Z,87.02
2022-10-05T22:35:18.961Z,85.63
2022-10-05T22:37:48.067Z,83.89
2022-10-05T22:40:15.865Z,86.72
2022-10-05T22:42:43.668Z,85.26
2022-10-05T22:45:11.561Z,83.72
2022-10-05T22:47:39.369Z,84.64
2022-10-05T22:50:09.081Z,86.67
2022-10-05T22:52:37.175Z,89.03
2022-10-05T22:55:07.430Z,89.33
2022-10-05T22:57:39.048Z,87.63
2022-10-05T23:00:08.620Z,87.92
2022-10-05T23:02:37.462Z,87.39
2022-10-05T23:05:05.964Z,87.63
2022-10-05T23:07:37.587Z,86.57
2022-10-05T23:10:08.986Z,90.19
2022-10-05T23:12:36.886Z,88.35
2022-10-05T23:15:06.017Z,86.84
2022-10-05T23:17:35.753Z,85.99
2022-10-05T23:20:05.288Z,87.21
2022-10-05T23:22:36.889Z,89.41
2022-10-05T23:25:08.084Z,92.13
2022-10-05T23:27:39.784Z,89.37
2022-10-05T23:30:09.904Z,89.62
2022-10-05T23:32:41.967Z,92.78
2022-10-05T23:35:13.667Z,93.01
2022-10-05T23:37:42.472Z,92.06
2022-10-05T23:40:14.664Z,91.09
2022-10-05T23:42:42.974Z,90.43
2022-10-05T23:45:12.845Z,91.91
2022-10-05T23:47:41.602Z,91.70
2022-10-05T23:50:10.605Z,92.03
2022-10-05T23:52:38.622Z,92.29
2022-10-05T23:55:07.397Z,91.36
2022-10-05T23:57:36.624Z,92.01
